METAR (acronimo di METeorological Air Report) è un messaggio meteo emesso nella maggior parte dei casi in ambito aeroportuale

LIPF - Ferrara, It
Distanza dalla Stazione: 8 km
Ultimo Aggiornamento: Venerdì 15 Novembre 2019 17:55 CET
Pioggia Leggera, Prevalentemente Nuvoloso
Pioggia Leggera, Prevalentemente Nuvoloso
 Wind from varies
Vento: variabile 0 km/h
Temperatura: 8°C
Punto di Rugiada: 8°C
Umidità: 100%
Barometro: 1002 hPa
Condizioni: Pioggia Leggera
Nuvole: Prevalentemente Nuvoloso
Visibilità: 7 km
Nuvole nel Dettaglio: Parzialmente Nuvoloso 457 m
Prevalentemente Nuvoloso 1067 m
2019/11/15 16:55 LIPF 151655Z /////KT 7000 -RA SCT015 BKN035 08/08 Q1002 RERA
LIPE - Bologna Borgo Panigale, It
Distanza dalla Stazione: 46 km
Ultimo Aggiornamento: Venerdì 15 Novembre 2019 18:20 CET
Pioggia Leggera, Prevalentemente Nuvoloso
Pioggia Leggera, Prevalentemente Nuvoloso
 Wind from Ovest
Vento: Ovest 4 km/h
Temperatura: 9°C
Punto di Rugiada: 8°C
Umidità: 94%
Barometro: 1003 hPa
Condizioni: Pioggia Leggera
Nuvole: Prevalentemente Nuvoloso
Visibilità: 10 km
Nuvole nel Dettaglio: Prevalentemente Nuvoloso 914 m
Prevalentemente Nuvoloso 2134 m
2019/11/15 17:20 LIPE 151720Z 26002KT 9999 -RA BKN030 BKN070 09/08 Q1003
LIMF - Torino Caselle, It
Distanza dalla Stazione: 320 km
Ultimo Aggiornamento: Venerdì 15 Novembre 2019 18:20 CET
Parzialmente Nuvoloso
Parzialmente Nuvoloso
 Wind from Sud
Vento: Sud 6 km/h
Temperatura: 5°C
Punto di Rugiada: 5°C
Umidità: 100%
Barometro: 1002 hPa
Nuvole: Parzialmente Nuvoloso
Visibilità: 10 km
Nuvole nel Dettaglio: Qualche Nuvola 762 m
Parzialmente Nuvoloso 1829 m
2019/11/15 17:20 LIMF 151720Z 17003KT 150V210 9999 FEW025 SCT060 05/05 Q1002
 
LIML - Milano Malpensa, It
Distanza dalla Stazione: 249 km
Ultimo Aggiornamento: Venerdì 15 Novembre 2019 18:20 CET
Prevalentemente Nuvoloso
Prevalentemente Nuvoloso
 Wind from Sud-Ovest
Vento: Sud-Ovest 7 km/h
Temperatura: 8°C
Wind Chill: 7°C
Punto di Rugiada: 6°C
Umidità: 87%
Barometro: 1003 hPa
Nuvole: Prevalentemente Nuvoloso
Visibilità: 10 km
Nuvole nel Dettaglio: Qualche Nuvola 152 m
Prevalentemente Nuvoloso 610 m
2019/11/15 17:20 LIML 151720Z 22004KT 200V260 9999 FEW005 BKN020 08/06 Q1003 NOSIG
LIME - Bergamo Orio al Serio, It
Distanza dalla Stazione: 181 km
Ultimo Aggiornamento: Venerdì 15 Novembre 2019 18:20 CET
Pioggia Leggera, Bruma, Nuvoloso
Pioggia Leggera, Bruma, Nuvoloso
 Wind from Sud-Ovest
Vento: Sud-Ovest 11 km/h
Temperatura: 8°C
Wind Chill: 6°C
Punto di Rugiada: 7°C
Umidità: 93%
Barometro: 1002 hPa
Condizioni: Pioggia Leggera, Bruma
Nuvole: Nuvoloso
Visibilità: 4 km
Nuvole nel Dettaglio: Prevalentemente Nuvoloso 91 m
Nuvoloso 457 m
2019/11/15 17:20 LIME 151720Z 23006KT 4000 -RA BR BKN003 OVC015 08/07 Q1002 NOSIG
LIPZ - Venezia Tessera, It
Distanza dalla Stazione: 93 km
Ultimo Aggiornamento: Venerdì 15 Novembre 2019 18:20 CET
Pioggia Leggera, Prevalentemente Nuvoloso
Pioggia Leggera, Prevalentemente Nuvoloso
 Wind from Sud
Vento: Sud 19 km/h
Temperatura: 14°C
Punto di Rugiada: 11°C
Umidità: 82%
Barometro: 1002 hPa
Condizioni: Pioggia Leggera
Nuvole: Prevalentemente Nuvoloso
Visibilità: 10 km
Nuvole nel Dettaglio: Parzialmente Nuvoloso 1646 m
Prevalentemente Nuvoloso 2134 m
2019/11/15 17:20 LIPZ 151720Z 19010KT 9999 -RA SCT054 BKN070 14/11 Q1002 NOSIG
 
LIVT - Trieste, It
Distanza dalla Stazione: 179 km
Ultimo Aggiornamento: Venerdì 15 Novembre 2019 17:55 CET

 
2019/11/15 16:55 LIVT 151655Z ///05KT 9999 FEW030 17/13 Q1003 RMK BKN BKN070 QUK / QUL / VIS MAR 20 KM VIS MIN 9999
LIMJ - Genova, It
Distanza dalla Stazione: 229 km
Ultimo Aggiornamento: Venerdì 15 Novembre 2019 18:20 CET
Prevalentemente Nuvoloso
Prevalentemente Nuvoloso
 Wind from Nord-Est
Vento: Nord-Est 11 km/h
Temperatura: 10°C
Wind Chill: 8°C
Punto di Rugiada: 7°C
Umidità: 82%
Barometro: 1002 hPa
Nuvole: Prevalentemente Nuvoloso
Visibilità: 10 km
Nuvole nel Dettaglio: Qualche Nuvola 671 m
Parzialmente Nuvoloso 1067 m
Prevalentemente Nuvoloso 1981 m
2019/11/15 17:20 LIMJ 151720Z 05006KT 030V090 9999 FEW022 SCT035 BKN065 10/07 Q1002
LIRQ - Firenze Amerigo Vespucci, It
Distanza dalla Stazione: 119 km
Ultimo Aggiornamento: Venerdì 15 Novembre 2019 18:20 CET
Pioggia Leggera, Prevalentemente Nuvoloso
Pioggia Leggera, Prevalentemente Nuvoloso
 Wind from Sud
Vento: Sud 9 km/h
Temperatura: 10°C
Wind Chill: 9°C
Punto di Rugiada: 9°C
Umidità: 94%
Barometro: 1003 hPa
Condizioni: Pioggia Leggera
Nuvole: Prevalentemente Nuvoloso
Visibilità: 10 km
Nuvole nel Dettaglio: Qualche Nuvola 305 m
Prevalentemente Nuvoloso 914 m
2019/11/15 17:20 LIRQ 151720Z 18005KT 9999 -RA FEW010 BKN030 10/09 Q1003
 
LIPY - Ancona, It
Distanza dalla Stazione: 189 km
Ultimo Aggiornamento: Venerdì 15 Novembre 2019 17:50 CET
Pioggia, Parzialmente Nuvoloso
Pioggia, Parzialmente Nuvoloso
 Wind from varies
Vento: variabile 6 km/h
Temperatura: 16°C
Punto di Rugiada: 12°C
Umidità: 77%
Barometro: 1003 hPa
Condizioni: Pioggia
Nuvole: Parzialmente Nuvoloso
Visibilità: 10 km
2019/11/15 16:50 LIPY 151650Z VRB03KT 9999 RA NSC 16/12 Q1003
LIBP - Pescara, It
Distanza dalla Stazione: 333 km
Ultimo Aggiornamento: Venerdì 15 Novembre 2019 17:50 CET
Parzialmente Nuvoloso
Parzialmente Nuvoloso
 Wind from Sud-Est
Vento: Sud-Est 11 km/h, Raffica: 31 km/h
Temperatura: 18°C
Punto di Rugiada: 7°C
Umidità: 49%
Barometro: 1003 hPa
Nuvole: Parzialmente Nuvoloso
Visibilità: 10 km
Nuvole nel Dettaglio: Parzialmente Nuvoloso 2438 m
2019/11/15 16:50 LIBP 151650Z 13006G17KT 100V170 9999 SCT080 18/07 Q1003
LIRF - Roma-Fiumicino, It
Distanza dalla Stazione: 334 km
Ultimo Aggiornamento: Venerdì 15 Novembre 2019 18:20 CET
Parzialmente Nuvoloso
Parzialmente Nuvoloso
 Wind from Ovest-Sud-Ovest
Vento: Ovest-Sud-Ovest 17 km/h
Temperatura: 15°C
Punto di Rugiada: 14°C
Umidità: 94%
Barometro: 1004 hPa
Nuvole: Parzialmente Nuvoloso
Visibilità: 8 km
Nuvole nel Dettaglio: Parzialmente Nuvoloso 762 m
2019/11/15 17:20 LIRF 151720Z 25009KT 8000 SCT025 15/14 Q1004 NOSIG
 
LIRN - Napoli Capodichino, It
Distanza dalla Stazione: 494 km
Ultimo Aggiornamento: Venerdì 15 Novembre 2019 18:20 CET
Parzialmente Nuvoloso
Parzialmente Nuvoloso
 Wind from varies
Vento: variabile 11 km/h
Temperatura: 19°C
Punto di Rugiada: 11°C
Umidità: 60%
Barometro: 1008 hPa
Nuvole: Parzialmente Nuvoloso
Visibilità: 10 km
Nuvole nel Dettaglio: Qualche Nuvola 914 m
Parzialmente Nuvoloso 2438 m
2019/11/15 17:20 LIRN 151720Z VRB06KT 9999 FEW030 SCT080 19/11 Q1008 NOSIG
LIBD - Bari Palese, It
Distanza dalla Stazione: 594 km
Ultimo Aggiornamento: Venerdì 15 Novembre 2019 18:20 CET
Sereno
Sereno
 Wind from Sud
Vento: Sud 24 km/h
Temperatura: 18°C
Punto di Rugiada: 13°C
Umidità: 73%
Barometro: 1010 hPa
Condizioni: Sereno
Visibilità: superiore a 10 km
2019/11/15 17:20 LIBD 151720Z 19013KT CAVOK 18/13 Q1010
LIBG - Taranto Grottaglie, It
Distanza dalla Stazione: 670 km
Ultimo Aggiornamento: Venerdì 15 Novembre 2019 17:50 CET
Parzialmente Nuvoloso
Parzialmente Nuvoloso
 Wind from Sud
Vento: Sud 20 km/h
Temperatura: 19°C
Punto di Rugiada: 15°C
Umidità: 78%
Barometro: 1012 hPa
Nuvole: Parzialmente Nuvoloso
Visibilità: 10 km
Nuvole nel Dettaglio: Parzialmente Nuvoloso 914 m
2019/11/15 16:50 LIBG 151650Z 17011KT 9999 SCT030 19/15 Q1012
 
LICR - Reggio Calabria, It
Distanza dalla Stazione: 819 km
Ultimo Aggiornamento: Venerdì 15 Novembre 2019 15:50 CET
Dati non Recenti
Qualche Nuvola
Qualche Nuvola
 Wind from Sud-Sud-Est
Vento: Sud-Sud-Est 20 km/h, Raffica: 39 km/h
Temperatura: 20°C
Punto di Rugiada: 12°C
Umidità: 60%
Barometro: 1012 hPa
Nuvole: Qualche Nuvola
Visibilità: 10 km
Nuvole nel Dettaglio: Qualche Nuvola 914 m
2019/11/15 14:50 LICR 151450Z 16011G21KT 9999 FEW030 20/12 Q1012
LICJ - Palermo Punta Raisi, It
Distanza dalla Stazione: 762 km
Ultimo Aggiornamento: Venerdì 15 Novembre 2019 18:20 CET
Sereno
Sereno
 Wind from Sud
Vento: Sud 37 km/h, Raffica: 56 km/h
Temperatura: 22°C
Punto di Rugiada: 7°C
Umidità: 38%
Barometro: 1007 hPa
Condizioni: Sereno
Visibilità: superiore a 10 km
2019/11/15 17:20 LICJ 151720Z 19020G30KT 150V210 CAVOK 22/07 Q1007
LICC - Catania Fontanarossa, It
Distanza dalla Stazione: 866 km
Ultimo Aggiornamento: Venerdì 15 Novembre 2019 18:20 CET
Sereno
Sereno
 Wind from Est-Nord-Est
Vento: Est-Nord-Est 7 km/h
Temperatura: 19°C
Punto di Rugiada: 14°C
Umidità: 73%
Barometro: 1013 hPa
Condizioni: Sereno
Visibilità: superiore a 10 km
2019/11/15 17:20 LICC 151720Z 07004KT CAVOK 19/14 Q1013
 
LIEE - Cagliari Elmas, It
Distanza dalla Stazione: 655 km
Ultimo Aggiornamento: Venerdì 15 Novembre 2019 18:20 CET
Qualche Nuvola
Qualche Nuvola
 Wind from Ovest-Nord-Ovest
Vento: Ovest-Nord-Ovest 6 km/h
Temperatura: 12°C
Punto di Rugiada: 9°C
Umidità: 82%
Barometro: 1006 hPa
Nuvole: Qualche Nuvola
Visibilità: 10 km
Nuvole nel Dettaglio: Qualche Nuvola 1219 m
2019/11/15 17:20 LIEE 151720Z 29003KT 230V350 9999 FEW040 12/09 Q1006
LIEO - Olbia, It
Distanza dalla Stazione: 463 km
Ultimo Aggiornamento: Venerdì 15 Novembre 2019 18:20 CET
Parzialmente Nuvoloso
Parzialmente Nuvoloso
 Wind from Ovest-Nord-Ovest
Vento: Ovest-Nord-Ovest 6 km/h
Temperatura: 10°C
Punto di Rugiada: 8°C
Umidità: 88%
Barometro: 1004 hPa
Nuvole: Parzialmente Nuvoloso
Visibilità: 10 km
Nuvole nel Dettaglio: Parzialmente Nuvoloso 610 m
2019/11/15 17:20 LIEO 151720Z 30003KT 260V330 9999 SCT020 10/08 Q1004
LICG - Pantelleria, It
Distanza dalla Stazione: 893 km
Ultimo Aggiornamento: Venerdì 15 Novembre 2019 17:50 CET
Sereno
Sereno
 Wind from Sud-Sud-Est
Vento: Sud-Sud-Est 35 km/h, Raffica: 54 km/h
Temperatura: 19°C
Punto di Rugiada: 16°C
Umidità: 83%
Barometro: 1008 hPa
Condizioni: Sereno
Visibilità: superiore a 10 km
2019/11/15 16:50 LICG 151650Z 15019G29KT CAVOK 19/16 Q1008